Airfield :
LOGIN :

Register | Disclaimer

   EN    FR    IT 

 










Legend :    VFR   Marginal VFR   IFR   Intensive IFR   Very Intensive IFR
Visi :
Ceiling :
>= 8 km
>= 3000ft
5 to 8 km
1000 to 3000 ft
1500m to 5 km
500 to 1000 ft
800 to 1500m
200 to 500 ft
< 800m
< 200 ft
Symbols :   Thunderstorms  Fog  Heavy snow  Heavy precipitations  Wind > 20 kt
SIGMETs :     Misc.  Thunderstorms  Icing  Turbulence  Mountain Waves  Volcanic Ashes






- Airport Elevation : 124 ft
- IATA code : RNS


LFRN - Rennes

CURRENT METAR :
  • 212300Z AUTO 22009KT 6000 -RA OVC008 13/12 Q1004 TEMPO 3000 RADZ OVC004

EXPIRED METARs :
  • 212230Z AUTO 22009KT 9999 -RA OVC009 13/12 Q1004 TEMPO 3000 RADZ OVC004
  • 212200Z AUTO 22008KT 7000 -RA BKN007 OVC012 13/12 Q1005 TEMPO 3000 RA
  • 212130Z AUTO 22008KT 7000 -RA OVC007 13/12 Q1005 TEMPO 3000 RA
  • 212100Z AUTO 22009KT 7000 -RA BKN007 OVC011 13/12 Q1006 TEMPO 3000 RA
  • 212030Z AUTO 22009KT 5000 -RA BR OVC007 13/12 Q1006 TEMPO RA
  • 212000Z AUTO 22010KT 190V250 9999 -RA OVC007 13/12 Q1007 TEMPO 3000 RA
  • 211930Z AUTO 22009KT 200V260 8000 -RA OVC007 13/12 Q1007 TEMPO 3000 RA
  • 211900Z AUTO 22010KT 7000 -DZ OVC006 13/12 Q1007 TEMPO 23015G25KT 3000 RA

TAF TAF LFRN
Valid from the 22 at 00:00 until the 23 at 00:00 UTC


212300Z 2200/2224 23010KT 9999 OVC008
TEMPO 2200/2208 3000 RADZ BKN005
PROB40
TEMPO 2200/2208 23015G25KT 1200 BR BKN002
BECMG 2208/2210 22015G30KT BKN020
TEMPO 2208/2211 3000 SHRA BKN008 BKN015CB
BECMG 2211/2213 26020G40KT
TEMPO 2211/2222 3000 SHRA BKN020CB
PROB40
TEMPO 2211/2217 26030G50KT 1500 TSRAGS BKN012CB
BECMG 2217/2219 23015G30KT
TEMPO 2219/2222 23020G40KT
BECMG 2222/2224 21010KT
PROB40
TEMPO 2222/2224 3000 SHRA BKN020CB
PROB30
TEMPO 2222/2224 24020G40KT 2000 TSRAGS
ATIS : +33 2 99 67 72 50



MET'MAP, your aeronautical weather chart ! - Copyright ORBIFLY December 2007 - Disclaimer

ORBIFLY MET'MAP TEAM :

Programming & Development : Alexandra Zaïnal
Original concept : Baudouin d'Aumeries
Technical & hardware support : Manuel Goepfert
Assistance : Marc-Olivier Méhu




SOURCES & CREDITS :

   NOAA